sensor_id;sensor_type;location;lat;lon;timestamp;pressure;altitude;pressure_sealevel;temperature;humidity
10958;BME280;5531;42.570;23.676;2022-09-09T00:01:05;92366.84;;;16.78;74.34
10958;BME280;5531;42.570;23.676;2022-09-09T00:03:42;92349.09;;;16.67;75.41
10958;BME280;5531;42.570;23.676;2022-09-09T00:06:21;92349.31;;;16.65;75.31
10958;BME280;5531;42.570;23.676;2022-09-09T00:09:00;92341.84;;;16.62;75.74
10958;BME280;5531;42.570;23.676;2022-09-09T00:11:39;92345.88;;;16.65;75.58
10958;BME280;5531;42.570;23.676;2022-09-09T00:14:14;92353.81;;;16.65;75.71
10958;BME280;5531;42.570;23.676;2022-09-09T00:16:52;92346.00;;;16.70;76.00
10958;BME280;5531;42.570;23.676;2022-09-09T00:19:27;92347.50;;;16.66;75.54
10958;BME280;5531;42.570;23.676;2022-09-09T00:22:12;92344.63;;;16.67;75.63
10958;BME280;5531;42.570;23.676;2022-09-09T00:24:45;92351.91;;;16.72;75.64
10958;BME280;5531;42.570;23.676;2022-09-09T00:27:24;92350.84;;;16.73;75.40
10958;BME280;5531;42.570;23.676;2022-09-09T00:29:58;92355.56;;;16.71;75.93
10958;BME280;5531;42.570;23.676;2022-09-09T00:32:30;92357.75;;;16.74;75.76
10958;BME280;5531;42.570;23.676;2022-09-09T00:35:13;92346.06;;;16.82;75.08
10958;BME280;5531;42.570;23.676;2022-09-09T00:37:44;92347.09;;;16.81;76.05
10958;BME280;5531;42.570;23.676;2022-09-09T00:40:22;92333.41;;;16.84;75.64
10958;BME280;5531;42.570;23.676;2022-09-09T00:43:09;92331.25;;;16.93;75.16
10958;BME280;5531;42.570;23.676;2022-09-09T00:45:59;92326.78;;;16.93;75.24
10958;BME280;5531;42.570;23.676;2022-09-09T00:48:41;92321.84;;;16.97;75.02
10958;BME280;5531;42.570;23.676;2022-09-09T00:51:19;92321.50;;;16.93;74.82
10958;BME280;5531;42.570;23.676;2022-09-09T00:54:13;92312.47;;;16.82;75.58
10958;BME280;5531;42.570;23.676;2022-09-09T00:56:55;92313.47;;;16.70;75.85
10958;BME280;5531;42.570;23.676;2022-09-09T00:59:37;92311.34;;;16.60;76.24
10958;BME280;5531;42.570;23.676;2022-09-09T01:02:16;92316.06;;;16.58;75.43
10958;BME280;5531;42.570;23.676;2022-09-09T01:04:47;92326.31;;;16.54;75.20
10958;BME280;5531;42.570;23.676;2022-09-09T01:07:17;92314.56;;;16.50;75.73
10958;BME280;5531;42.570;23.676;2022-09-09T01:09:54;92310.16;;;16.44;75.52
10958;BME280;5531;42.570;23.676;2022-09-09T01:12:30;92315.09;;;16.40;75.97
10958;BME280;5531;42.570;23.676;2022-09-09T01:15:09;92313.03;;;16.42;75.56
10958;BME280;5531;42.570;23.676;2022-09-09T01:17:48;92321.03;;;16.36;76.13
10958;BME280;5531;42.570;23.676;2022-09-09T01:20:22;92316.09;;;16.39;75.23
10958;BME280;5531;42.570;23.676;2022-09-09T01:26:13;92311.13;;;16.31;75.82
10958;BME280;5531;42.570;23.676;2022-09-09T01:28:45;92319.38;;;16.23;76.55
10958;BME280;5531;42.570;23.676;2022-09-09T01:31:18;92324.66;;;16.23;76.45
10958;BME280;5531;42.570;23.676;2022-09-09T01:33:48;92324.88;;;16.21;76.20
10958;BME280;5531;42.570;23.676;2022-09-09T01:36:24;92318.59;;;16.22;76.41
10958;BME280;5531;42.570;23.676;2022-09-09T01:38:55;92319.09;;;16.12;76.42
10958;BME280;5531;42.570;23.676;2022-09-09T01:41:27;92319.69;;;16.15;76.49
10958;BME280;5531;42.570;23.676;2022-09-09T01:43:57;92317.66;;;15.98;77.50
10958;BME280;5531;42.570;23.676;2022-09-09T01:46:27;92313.16;;;15.99;78.14
10958;BME280;5531;42.570;23.676;2022-09-09T01:48:57;92317.88;;;15.97;78.61
10958;BME280;5531;42.570;23.676;2022-09-09T01:51:27;92312.09;;;15.88;79.40
10958;BME280;5531;42.570;23.676;2022-09-09T01:53:57;92313.41;;;15.79;79.66
10958;BME280;5531;42.570;23.676;2022-09-09T01:56:37;92318.03;;;15.83;80.35
10958;BME280;5531;42.570;23.676;2022-09-09T01:59:18;92323.59;;;15.75;81.04
10958;BME280;5531;42.570;23.676;2022-09-09T02:02:04;92321.81;;;15.69;81.46
10958;BME280;5531;42.570;23.676;2022-09-09T02:04:39;92328.78;;;15.63;82.21
10958;BME280;5531;42.570;23.676;2022-09-09T02:07:18;92331.72;;;15.55;82.21
10958;BME280;5531;42.570;23.676;2022-09-09T02:09:54;92324.09;;;15.47;83.33
10958;BME280;5531;42.570;23.676;2022-09-09T02:12:30;92329.38;;;15.47;83.21
10958;BME280;5531;42.570;23.676;2022-09-09T02:15:03;92336.69;;;15.45;83.65
10958;BME280;5531;42.570;23.676;2022-09-09T02:17:36;92338.66;;;15.49;83.33
10958;BME280;5531;42.570;23.676;2022-09-09T02:20:09;92340.00;;;15.58;82.88
10958;BME280;5531;42.570;23.676;2022-09-09T02:22:42;92343.88;;;15.56;83.48
10958;BME280;5531;42.570;23.676;2022-09-09T02:25:15;92334.78;;;15.52;83.74
10958;BME280;5531;42.570;23.676;2022-09-09T02:27:50;92326.50;;;15.48;84.12
10958;BME280;5531;42.570;23.676;2022-09-09T02:30:20;92322.47;;;15.46;84.19
10958;BME280;5531;42.570;23.676;2022-09-09T02:32:51;92324.88;;;15.47;82.98
10958;BME280;5531;42.570;23.676;2022-09-09T02:35:23;92328.53;;;15.46;82.97
10958;BME280;5531;42.570;23.676;2022-09-09T02:37:55;92327.03;;;15.32;83.28
10958;BME280;5531;42.570;23.676;2022-09-09T02:40:26;92332.72;;;15.35;82.94
10958;BME280;5531;42.570;23.676;2022-09-09T02:42:58;92320.97;;;15.31;83.79
10958;BME280;5531;42.570;23.676;2022-09-09T02:45:36;92323.03;;;15.29;83.59
10958;BME280;5531;42.570;23.676;2022-09-09T02:48:14;92319.47;;;15.17;84.39
10958;BME280;5531;42.570;23.676;2022-09-09T02:50:54;92313.88;;;15.07;84.90
10958;BME280;5531;42.570;23.676;2022-09-09T02:53:30;92320.38;;;15.04;84.89
10958;BME280;5531;42.570;23.676;2022-09-09T02:56:05;92326.50;;;15.05;84.81
10958;BME280;5531;42.570;23.676;2022-09-09T02:58:40;92319.00;;;15.01;84.71
10958;BME280;5531;42.570;23.676;2022-09-09T03:01:10;92315.72;;;15.06;84.02
10958;BME280;5531;42.570;23.676;2022-09-09T03:03:40;92312.72;;;15.02;84.63
10958;BME280;5531;42.570;23.676;2022-09-09T03:06:10;92311.88;;;15.02;84.72
10958;BME280;5531;42.570;23.676;2022-09-09T03:08:40;92314.53;;;15.02;83.48
10958;BME280;5531;42.570;23.676;2022-09-09T03:11:09;92311.69;;;15.03;83.37
10958;BME280;5531;42.570;23.676;2022-09-09T03:13:42;92322.16;;;15.10;83.73
10958;BME280;5531;42.570;23.676;2022-09-09T03:16:11;92324.81;;;15.10;83.49
10958;BME280;5531;42.570;23.676;2022-09-09T03:18:40;92320.34;;;15.11;83.13
10958;BME280;5531;42.570;23.676;2022-09-09T03:21:10;92314.25;;;15.10;83.24
10958;BME280;5531;42.570;23.676;2022-09-09T03:23:40;92306.56;;;15.09;83.10
10958;BME280;5531;42.570;23.676;2022-09-09T03:26:10;92310.88;;;15.03;83.09
10958;BME280;5531;42.570;23.676;2022-09-09T03:28:43;92320.34;;;15.11;82.72
10958;BME280;5531;42.570;23.676;2022-09-09T03:31:12;92310.53;;;15.18;81.80
10958;BME280;5531;42.570;23.676;2022-09-09T03:33:41;92315.03;;;15.17;81.34
10958;BME280;5531;42.570;23.676;2022-09-09T03:36:10;92314.81;;;15.19;81.48
10958;BME280;5531;42.570;23.676;2022-09-09T03:38:39;92309.75;;;15.17;81.59
10958;BME280;5531;42.570;23.676;2022-09-09T03:41:09;92314.03;;;15.12;81.78
10958;BME280;5531;42.570;23.676;2022-09-09T03:43:38;92313.25;;;15.11;82.57
10958;BME280;5531;42.570;23.676;2022-09-09T03:46:10;92325.03;;;15.09;82.46
10958;BME280;5531;42.570;23.676;2022-09-09T03:48:39;92325.03;;;15.09;82.38
10958;BME280;5531;42.570;23.676;2022-09-09T03:51:08;92325.63;;;15.11;81.87
10958;BME280;5531;42.570;23.676;2022-09-09T03:53:37;92316.16;;;15.03;82.56
10958;BME280;5531;42.570;23.676;2022-09-09T03:56:06;92315.28;;;15.09;82.04
10958;BME280;5531;42.570;23.676;2022-09-09T03:58:36;92309.84;;;15.04;82.66
10958;BME280;5531;42.570;23.676;2022-09-09T04:01:10;92317.75;;;15.04;81.73
10958;BME280;5531;42.570;23.676;2022-09-09T04:03:41;92315.72;;;15.06;81.85
10958;BME280;5531;42.570;23.676;2022-09-09T04:06:11;92320.56;;;15.09;82.05
10958;BME280;5531;42.570;23.676;2022-09-09T04:08:41;92325.03;;;15.09;82.08
10958;BME280;5531;42.570;23.676;2022-09-09T04:11:10;92331.34;;;15.08;82.26
10958;BME280;5531;42.570;23.676;2022-09-09T04:13:40;92331.19;;;15.02;82.05
10958;BME280;5531;42.570;23.676;2022-09-09T04:16:13;92327.88;;;15.07;81.82
10958;BME280;5531;42.570;23.676;2022-09-09T04:18:42;92319.59;;;15.03;82.22
10958;BME280;5531;42.570;23.676;2022-09-09T04:21:12;92322.44;;;15.02;82.41
10958;BME280;5531;42.570;23.676;2022-09-09T04:23:42;92327.72;;;15.02;82.67
10958;BME280;5531;42.570;23.676;2022-09-09T04:26:13;92334.47;;;14.98;83.27
10958;BME280;5531;42.570;23.676;2022-09-09T04:28:43;92345.19;;;15.03;82.77
10958;BME280;5531;42.570;23.676;2022-09-09T04:31:18;92341.94;;;15.01;82.59
10958;BME280;5531;42.570;23.676;2022-09-09T04:33:49;92327.50;;;15.03;82.32
10958;BME280;5531;42.570;23.676;2022-09-09T04:36:18;92335.06;;;15.00;82.94
10958;BME280;5531;42.570;23.676;2022-09-09T04:38:48;92336.84;;;15.06;83.05
10958;BME280;5531;42.570;23.676;2022-09-09T04:41:17;92334.63;;;15.03;82.49
10958;BME280;5531;42.570;23.676;2022-09-09T04:43:46;92333.16;;;15.07;83.29
10958;BME280;5531;42.570;23.676;2022-09-09T04:46:18;92328.50;;;15.09;82.76
10958;BME280;5531;42.570;23.676;2022-09-09T04:48:49;92334.34;;;15.11;82.82
10958;BME280;5531;42.570;23.676;2022-09-09T04:51:18;92327.16;;;15.18;82.37
10958;BME280;5531;42.570;23.676;2022-09-09T04:53:47;92325.56;;;15.17;82.08
10958;BME280;5531;42.570;23.676;2022-09-09T04:56:18;92332.59;;;15.24;82.41
10958;BME280;5531;42.570;23.676;2022-09-09T04:58:47;92325.09;;;15.27;82.47
10958;BME280;5531;42.570;23.676;2022-09-09T05:01:20;92318.31;;;15.31;81.89
10958;BME280;5531;42.570;23.676;2022-09-09T05:03:50;92322.75;;;15.37;81.66
10958;BME280;5531;42.570;23.676;2022-09-09T05:06:21;92320.03;;;15.44;81.50
10958;BME280;5531;42.570;23.676;2022-09-09T05:08:51;92329.16;;;15.48;81.68
10958;BME280;5531;42.570;23.676;2022-09-09T05:11:23;92321.59;;;15.52;81.25
10958;BME280;5531;42.570;23.676;2022-09-09T05:13:53;92319.03;;;15.64;80.84
10958;BME280;5531;42.570;23.676;2022-09-09T05:16:25;92324.03;;;15.72;81.47
10958;BME280;5531;42.570;23.676;2022-09-09T05:18:54;92318.09;;;15.76;80.59
10958;BME280;5531;42.570;23.676;2022-09-09T05:21:24;92308.13;;;15.79;80.98
10958;BME280;5531;42.570;23.676;2022-09-09T05:23:54;92306.44;;;15.84;81.00
10958;BME280;5531;42.570;23.676;2022-09-09T05:26:23;92317.59;;;15.86;80.83
10958;BME280;5531;42.570;23.676;2022-09-09T05:28:52;92308.78;;;15.92;80.31
10958;BME280;5531;42.570;23.676;2022-09-09T05:31:24;92305.41;;;16.04;80.30
10958;BME280;5531;42.570;23.676;2022-09-09T05:33:55;92295.31;;;16.12;80.29
10958;BME280;5531;42.570;23.676;2022-09-09T05:36:25;92289.94;;;16.19;79.83
10958;BME280;5531;42.570;23.676;2022-09-09T05:38:54;92297.22;;;16.24;79.81
10958;BME280;5531;42.570;23.676;2022-09-09T05:41:22;92295.28;;;16.31;79.84
10958;BME280;5531;42.570;23.676;2022-09-09T05:43:52;92296.09;;;16.31;79.19
10958;BME280;5531;42.570;23.676;2022-09-09T05:46:24;92296.56;;;16.40;79.67
10958;BME280;5531;42.570;23.676;2022-09-09T05:48:53;92296.13;;;16.43;79.81
10958;BME280;5531;42.570;23.676;2022-09-09T05:51:25;92299.84;;;16.54;79.32
10958;BME280;5531;42.570;23.676;2022-09-09T05:53:55;92301.69;;;16.65;78.97
10958;BME280;5531;42.570;23.676;2022-09-09T05:56:37;92300.81;;;16.72;79.27
10958;BME280;5531;42.570;23.676;2022-09-09T05:59:08;92296.34;;;16.84;78.92
10958;BME280;5531;42.570;23.676;2022-09-09T06:01:41;92305.91;;;16.85;79.17
10958;BME280;5531;42.570;23.676;2022-09-09T06:04:11;92311.59;;;16.89;78.39
10958;BME280;5531;42.570;23.676;2022-09-09T06:06:40;92311.13;;;16.92;79.09
10958;BME280;5531;42.570;23.676;2022-09-09T06:09:09;92304.00;;;17.04;78.08
10958;BME280;5531;42.570;23.676;2022-09-09T06:11:39;92302.63;;;17.13;77.91
10958;BME280;5531;42.570;23.676;2022-09-09T06:14:09;92298.72;;;17.16;77.21
10958;BME280;5531;42.570;23.676;2022-09-09T06:16:41;92298.13;;;17.26;76.84
10958;BME280;5531;42.570;23.676;2022-09-09T06:19:11;92297.44;;;17.30;77.12
10958;BME280;5531;42.570;23.676;2022-09-09T06:21:40;92304.38;;;17.43;77.99
10958;BME280;5531;42.570;23.676;2022-09-09T06:24:10;92306.53;;;17.58;77.09
10958;BME280;5531;42.570;23.676;2022-09-09T06:26:43;92308.38;;;17.69;75.20
10958;BME280;5531;42.570;23.676;2022-09-09T06:29:12;92312.97;;;17.74;74.99
10958;BME280;5531;42.570;23.676;2022-09-09T06:31:43;92313.31;;;17.77;73.88
10958;BME280;5531;42.570;23.676;2022-09-09T06:34:13;92313.78;;;17.86;74.01
10958;BME280;5531;42.570;23.676;2022-09-09T06:36:42;92317.59;;;17.90;72.73
10958;BME280;5531;42.570;23.676;2022-09-09T06:39:12;92320.81;;;18.04;73.20
10958;BME280;5531;42.570;23.676;2022-09-09T06:41:42;92309.94;;;18.18;72.36
10958;BME280;5531;42.570;23.676;2022-09-09T06:44:11;92312.75;;;18.28;70.85
10958;BME280;5531;42.570;23.676;2022-09-09T06:46:43;92308.25;;;18.28;70.92
10958;BME280;5531;42.570;23.676;2022-09-09T06:49:13;92314.72;;;18.32;70.38
10958;BME280;5531;42.570;23.676;2022-09-09T06:51:42;92319.75;;;18.46;70.38
10958;BME280;5531;42.570;23.676;2022-09-09T06:54:12;92320.19;;;18.55;69.75
10958;BME280;5531;42.570;23.676;2022-09-09T06:56:42;92323.63;;;18.55;70.25
10958;BME280;5531;42.570;23.676;2022-09-09T06:59:11;92321.88;;;18.61;69.89
10958;BME280;5531;42.570;23.676;2022-09-09T07:01:46;92304.53;;;18.70;69.40
10958;BME280;5531;42.570;23.676;2022-09-09T07:04:17;92317.72;;;18.82;70.11
10958;BME280;5531;42.570;23.676;2022-09-09T07:06:46;92315.53;;;18.91;68.36
10958;BME280;5531;42.570;23.676;2022-09-09T07:09:16;92320.38;;;18.94;68.18
10958;BME280;5531;42.570;23.676;2022-09-09T07:11:48;92326.63;;;19.04;67.18
10958;BME280;5531;42.570;23.676;2022-09-09T07:14:19;92331.22;;;19.09;66.26
10958;BME280;5531;42.570;23.676;2022-09-09T07:16:51;92334.91;;;19.08;66.51
10958;BME280;5531;42.570;23.676;2022-09-09T07:19:20;92337.03;;;19.23;66.84
10958;BME280;5531;42.570;23.676;2022-09-09T07:21:49;92335.91;;;19.36;66.43
10958;BME280;5531;42.570;23.676;2022-09-09T07:24:18;92334.31;;;19.35;66.07
10958;BME280;5531;42.570;23.676;2022-09-09T07:26:47;92332.28;;;19.42;65.96
10958;BME280;5531;42.570;23.676;2022-09-09T07:29:17;92323.88;;;19.50;66.67
10958;BME280;5531;42.570;23.676;2022-09-09T07:31:47;92336.63;;;19.82;67.40
10958;BME280;5531;42.570;23.676;2022-09-09T07:34:19;92338.38;;;19.93;65.61
10958;BME280;5531;42.570;23.676;2022-09-09T07:36:48;92339.03;;;20.06;65.36
10958;BME280;5531;42.570;23.676;2022-09-09T07:39:17;92331.22;;;20.16;66.17
10958;BME280;5531;42.570;23.676;2022-09-09T07:41:47;92327.25;;;20.19;64.99
10958;BME280;5531;42.570;23.676;2022-09-09T07:44:19;92331.63;;;20.30;65.16
10958;BME280;5531;42.570;23.676;2022-09-09T07:46:49;92326.84;;;20.32;65.48
10958;BME280;5531;42.570;23.676;2022-09-09T07:49:21;92327.59;;;20.49;65.33
10958;BME280;5531;42.570;23.676;2022-09-09T07:51:50;92337.44;;;20.49;64.78
10958;BME280;5531;42.570;23.676;2022-09-09T07:54:20;92327.09;;;20.52;64.51
10958;BME280;5531;42.570;23.676;2022-09-09T07:56:50;92329.56;;;20.59;65.44
10958;BME280;5531;42.570;23.676;2022-09-09T07:59:19;92329.31;;;20.61;65.26
10958;BME280;5531;42.570;23.676;2022-09-09T08:01:51;92320.97;;;20.74;65.06
10958;BME280;5531;42.570;23.676;2022-09-09T08:04:24;92333.56;;;20.84;63.55
10958;BME280;5531;42.570;23.676;2022-09-09T08:06:56;92323.78;;;20.90;63.87
10958;BME280;5531;42.570;23.676;2022-09-09T08:09:28;92334.81;;;21.03;63.94
10958;BME280;5531;42.570;23.676;2022-09-09T08:11:59;92325.66;;;21.21;64.88
10958;BME280;5531;42.570;23.676;2022-09-09T08:14:31;92327.59;;;21.31;63.21
10958;BME280;5531;42.570;23.676;2022-09-09T08:17:00;92337.00;;;21.39;63.01
10958;BME280;5531;42.570;23.676;2022-09-09T08:19:32;92338.41;;;21.47;62.95
10958;BME280;5531;42.570;23.676;2022-09-09T08:22:02;92340.25;;;21.46;63.29
10958;BME280;5531;42.570;23.676;2022-09-09T08:24:31;92340.50;;;21.45;62.75
10958;BME280;5531;42.570;23.676;2022-09-09T08:27:00;92333.19;;;21.62;62.86
10958;BME280;5531;42.570;23.676;2022-09-09T08:29:29;92336.22;;;21.76;63.82
10958;BME280;5531;42.570;23.676;2022-09-09T08:31:59;92332.53;;;21.82;62.29
10958;BME280;5531;42.570;23.676;2022-09-09T08:34:28;92337.97;;;21.97;62.13
10958;BME280;5531;42.570;23.676;2022-09-09T08:37:00;92340.44;;;22.14;61.98
10958;BME280;5531;42.570;23.676;2022-09-09T08:39:29;92332.56;;;22.35;61.16
10958;BME280;5531;42.570;23.676;2022-09-09T08:42:19;92328.31;;;22.39;60.18
10958;BME280;5531;42.570;23.676;2022-09-09T08:45:05;92332.09;;;22.48;60.16
10958;BME280;5531;42.570;23.676;2022-09-09T08:47:45;92329.44;;;22.54;62.04
10958;BME280;5531;42.570;23.676;2022-09-09T08:50:22;92321.41;;;22.54;59.76
10958;BME280;5531;42.570;23.676;2022-09-09T08:53:01;92335.09;;;22.73;59.93
10958;BME280;5531;42.570;23.676;2022-09-09T08:55:39;92330.03;;;22.76;59.37
10958;BME280;5531;42.570;23.676;2022-09-09T08:58:13;92326.84;;;22.79;59.44
10958;BME280;5531;42.570;23.676;2022-09-09T09:01:02;92319.06;;;22.73;59.69
10958;BME280;5531;42.570;23.676;2022-09-09T09:03:48;92321.47;;;22.64;60.39
10958;BME280;5531;42.570;23.676;2022-09-09T09:06:30;92320.91;;;22.57;60.32
10958;BME280;5531;42.570;23.676;2022-09-09T09:09:13;92325.16;;;22.47;59.99
10958;BME280;5531;42.570;23.676;2022-09-09T09:11:49;92312.34;;;22.55;60.06
10958;BME280;5531;42.570;23.676;2022-09-09T09:14:21;92317.41;;;22.46;59.90
10958;BME280;5531;42.570;23.676;2022-09-09T09:16:53;92318.47;;;22.55;60.16
10958;BME280;5531;42.570;23.676;2022-09-09T09:19:25;92319.84;;;22.63;60.70
10958;BME280;5531;42.570;23.676;2022-09-09T09:22:00;92316.66;;;22.71;60.87
10958;BME280;5531;42.570;23.676;2022-09-09T09:24:42;92313.75;;;22.78;59.61
10958;BME280;5531;42.570;23.676;2022-09-09T09:27:16;92318.56;;;22.86;61.50
10958;BME280;5531;42.570;23.676;2022-09-09T09:29:48;92310.28;;;22.87;59.51
10958;BME280;5531;42.570;23.676;2022-09-09T09:32:21;92319.66;;;22.90;59.71
10958;BME280;5531;42.570;23.676;2022-09-09T09:34:51;92317.25;;;23.04;60.97
10958;BME280;5531;42.570;23.676;2022-09-09T09:37:27;92313.28;;;23.12;60.12
10958;BME280;5531;42.570;23.676;2022-09-09T09:40:08;92314.38;;;23.26;60.12
10958;BME280;5531;42.570;23.676;2022-09-09T09:42:47;92309.81;;;23.27;59.14
10958;BME280;5531;42.570;23.676;2022-09-09T09:45:25;92325.88;;;23.32;58.66
10958;BME280;5531;42.570;23.676;2022-09-09T09:48:02;92323.19;;;23.32;59.09
10958;BME280;5531;42.570;23.676;2022-09-09T09:50:32;92311.41;;;23.17;59.77
10958;BME280;5531;42.570;23.676;2022-09-09T09:53:03;92318.63;;;23.27;59.57
10958;BME280;5531;42.570;23.676;2022-09-09T09:55:44;92316.53;;;23.34;59.67
10958;BME280;5531;42.570;23.676;2022-09-09T09:58:15;92313.31;;;23.37;60.11
10958;BME280;5531;42.570;23.676;2022-09-09T10:00:48;92314.38;;;23.31;60.88
10958;BME280;5531;42.570;23.676;2022-09-09T10:03:23;92314.38;;;23.36;59.80
10958;BME280;5531;42.570;23.676;2022-09-09T10:05:53;92311.16;;;23.39;59.42
10958;BME280;5531;42.570;23.676;2022-09-09T10:08:24;92307.94;;;23.53;58.90
10958;BME280;5531;42.570;23.676;2022-09-09T10:11:09;92308.22;;;23.67;57.32
10958;BME280;5531;42.570;23.676;2022-09-09T10:13:57;92311.94;;;23.71;58.97
10958;BME280;5531;42.570;23.676;2022-09-09T10:16:38;92305.53;;;23.72;58.48
10958;BME280;5531;42.570;23.676;2022-09-09T10:19:14;92304.47;;;23.73;56.95
10958;BME280;5531;42.570;23.676;2022-09-09T10:22:02;92312.75;;;23.87;57.04
10958;BME280;5531;42.570;23.676;2022-09-09T10:25:01;92312.75;;;23.92;55.86
10958;BME280;5531;42.570;23.676;2022-09-09T10:27:44;92301.97;;;24.18;55.38
10958;BME280;5531;42.570;23.676;2022-09-09T10:30:18;92314.72;;;24.41;55.02
10958;BME280;5531;42.570;23.676;2022-09-09T10:32:50;92310.66;;;24.54;57.11
10958;BME280;5531;42.570;23.676;2022-09-09T10:35:29;92318.41;;;24.66;55.68
10958;BME280;5531;42.570;23.676;2022-09-09T10:38:15;92307.94;;;24.69;57.18
10958;BME280;5531;42.570;23.676;2022-09-09T10:41:05;92306.53;;;24.82;54.74
10958;BME280;5531;42.570;23.676;2022-09-09T10:43:56;92308.56;;;25.01;53.87
10958;BME280;5531;42.570;23.676;2022-09-09T10:46:37;92309.00;;;25.18;52.99
10958;BME280;5531;42.570;23.676;2022-09-09T10:49:18;92313.50;;;25.28;54.13
10958;BME280;5531;42.570;23.676;2022-09-09T10:51:58;92308.84;;;25.44;53.39
10958;BME280;5531;42.570;23.676;2022-09-09T10:54:44;92308.25;;;25.47;51.94
10958;BME280;5531;42.570;23.676;2022-09-09T10:57:20;92300.97;;;25.53;53.11
10958;BME280;5531;42.570;23.676;2022-09-09T11:00:01;92306.34;;;25.53;53.24
10958;BME280;5531;42.570;23.676;2022-09-09T11:02:33;92310.34;;;25.55;53.34
10958;BME280;5531;42.570;23.676;2022-09-09T11:05:05;92313.31;;;25.54;54.59
10958;BME280;5531;42.570;23.676;2022-09-09T11:07:39;92307.31;;;25.33;53.30
10958;BME280;5531;42.570;23.676;2022-09-09T11:10:18;92301.09;;;25.37;54.48
10958;BME280;5531;42.570;23.676;2022-09-09T11:12:52;92307.78;;;25.40;54.06
10958;BME280;5531;42.570;23.676;2022-09-09T11:15:30;92297.84;;;25.40;52.59
10958;BME280;5531;42.570;23.676;2022-09-09T11:18:09;92300.47;;;25.51;53.15
10958;BME280;5531;42.570;23.676;2022-09-09T11:20:41;92297.22;;;25.54;53.81
10958;BME280;5531;42.570;23.676;2022-09-09T11:23:13;92302.31;;;25.50;53.54
10958;BME280;5531;42.570;23.676;2022-09-09T11:25:50;92306.56;;;25.56;53.20
10958;BME280;5531;42.570;23.676;2022-09-09T11:28:36;92308.25;;;25.47;53.50
10958;BME280;5531;42.570;23.676;2022-09-09T11:31:26;92307.03;;;25.34;53.40
10958;BME280;5531;42.570;23.676;2022-09-09T11:34:12;92304.31;;;25.39;53.38
10958;BME280;5531;42.570;23.676;2022-09-09T11:37:09;92303.75;;;25.42;53.50
10958;BME280;5531;42.570;23.676;2022-09-09T11:39:51;92299.66;;;25.50;52.89
10958;BME280;5531;42.570;23.676;2022-09-09T11:42:24;92300.69;;;25.54;54.58
10958;BME280;5531;42.570;23.676;2022-09-09T11:44:53;92291.56;;;25.55;54.86
10958;BME280;5531;42.570;23.676;2022-09-09T11:47:27;92290.75;;;25.55;54.98
10958;BME280;5531;42.570;23.676;2022-09-09T11:50:09;92292.50;;;25.70;55.05
10958;BME280;5531;42.570;23.676;2022-09-09T11:52:40;92287.84;;;25.80;54.89
10958;BME280;5531;42.570;23.676;2022-09-09T11:55:24;92275.16;;;25.86;54.99
10958;BME280;5531;42.570;23.676;2022-09-09T11:57:58;92269.78;;;25.86;54.94
10958;BME280;5531;42.570;23.676;2022-09-09T12:00:32;92265.25;;;25.87;54.06
10958;BME280;5531;42.570;23.676;2022-09-09T12:03:06;92280.81;;;25.85;54.60
10958;BME280;5531;42.570;23.676;2022-09-09T12:05:56;92266.31;;;25.86;54.43
10958;BME280;5531;42.570;23.676;2022-09-09T12:08:27;92261.00;;;25.80;55.09
10958;BME280;5531;42.570;23.676;2022-09-09T12:10:58;92249.22;;;25.76;55.54
10958;BME280;5531;42.570;23.676;2022-09-09T12:13:29;92250.59;;;25.74;55.64
10958;BME280;5531;42.570;23.676;2022-09-09T12:15:59;92249.63;;;25.65;53.53
10958;BME280;5531;42.570;23.676;2022-09-09T12:18:36;92232.44;;;25.66;54.79
10958;BME280;5531;42.570;23.676;2022-09-09T12:21:11;92231.94;;;25.64;55.06
10958;BME280;5531;42.570;23.676;2022-09-09T12:23:47;92233.50;;;25.65;54.61
10958;BME280;5531;42.570;23.676;2022-09-09T12:26:32;92240.25;;;25.62;55.41
10958;BME280;5531;42.570;23.676;2022-09-09T12:29:12;92239.97;;;25.34;54.79
10958;BME280;5531;42.570;23.676;2022-09-09T12:31:48;92240.00;;;25.29;57.35
10958;BME280;5531;42.570;23.676;2022-09-09T12:34:33;92227.41;;;25.30;55.99
10958;BME280;5531;42.570;23.676;2022-09-09T12:37:08;92226.09;;;25.22;57.11
10958;BME280;5531;42.570;23.676;2022-09-09T12:39:47;92235.94;;;24.97;57.08
10958;BME280;5531;42.570;23.676;2022-09-09T12:42:19;92223.56;;;25.01;57.59
10958;BME280;5531;42.570;23.676;2022-09-09T12:44:53;92226.56;;;24.95;57.40
10958;BME280;5531;42.570;23.676;2022-09-09T12:47:26;92214.28;;;24.88;57.68
10958;BME280;5531;42.570;23.676;2022-09-09T12:50:00;92213.78;;;24.86;58.70
10958;BME280;5531;42.570;23.676;2022-09-09T12:52:32;92216.56;;;24.71;57.63
10958;BME280;5531;42.570;23.676;2022-09-09T12:55:05;92221.19;;;24.55;58.69
10958;BME280;5531;42.570;23.676;2022-09-09T12:57:37;92218.00;;;24.58;58.36
10958;BME280;5531;42.570;23.676;2022-09-09T13:00:15;92224.38;;;24.62;57.76
10958;BME280;5531;42.570;23.676;2022-09-09T13:02:51;92215.06;;;24.49;57.49
10958;BME280;5531;42.570;23.676;2022-09-09T13:05:25;92213.53;;;24.38;58.26
10958;BME280;5531;42.570;23.676;2022-09-09T13:08:01;92200.22;;;24.18;58.37
10958;BME280;5531;42.570;23.676;2022-09-09T13:10:33;92220.00;;;24.27;58.85
10958;BME280;5531;42.570;23.676;2022-09-09T13:13:04;92213.59;;;24.23;58.76
10958;BME280;5531;42.570;23.676;2022-09-09T13:15:49;92212.56;;;24.13;58.76
10958;BME280;5531;42.570;23.676;2022-09-09T13:18:22;92215.25;;;24.08;58.52
10958;BME280;5531;42.570;23.676;2022-09-09T13:20:55;92215.22;;;24.13;58.98
10958;BME280;5531;42.570;23.676;2022-09-09T13:23:28;92202.13;;;24.17;59.19
10958;BME280;5531;42.570;23.676;2022-09-09T13:25:59;92209.06;;;24.18;59.22
10958;BME280;5531;42.570;23.676;2022-09-09T13:28:30;92197.56;;;24.18;59.57
10958;BME280;5531;42.570;23.676;2022-09-09T13:31:01;92201.31;;;24.11;59.42
10958;BME280;5531;42.570;23.676;2022-09-09T13:33:33;92198.94;;;24.05;59.71
10958;BME280;5531;42.570;23.676;2022-09-09T13:36:07;92199.75;;;24.10;60.07
10958;BME280;5531;42.570;23.676;2022-09-09T13:38:40;92203.78;;;24.03;60.65